sensor_id;sensor_type;location;lat;lon;timestamp;P1;durP1;ratioP1;P2;durP2;ratioP2
18188;SDS011;9219;50.396;8.546;2023-02-11T00:07:05;43.70;;;22.53;;
18188;SDS011;9219;50.396;8.546;2023-02-11T00:09:33;47.80;;;23.00;;
18188;SDS011;9219;50.396;8.546;2023-02-11T00:12:01;45.63;;;23.57;;
18188;SDS011;9219;50.396;8.546;2023-02-11T00:14:29;51.83;;;21.03;;
18188;SDS011;9219;50.396;8.546;2023-02-11T00:16:56;48.90;;;23.53;;
18188;SDS011;9219;50.396;8.546;2023-02-11T00:19:24;61.40;;;24.83;;
18188;SDS011;9219;50.396;8.546;2023-02-11T00:21:53;47.70;;;21.13;;
18188;SDS011;9219;50.396;8.546;2023-02-11T00:24:25;41.90;;;20.27;;
18188;SDS011;9219;50.396;8.546;2023-02-11T00:32:02;43.43;;;20.63;;
18188;SDS011;9219;50.396;8.546;2023-02-11T00:34:31;49.77;;;23.13;;
18188;SDS011;9219;50.396;8.546;2023-02-11T00:36:58;42.77;;;23.43;;
18188;SDS011;9219;50.396;8.546;2023-02-11T00:39:26;40.37;;;20.70;;
18188;SDS011;9219;50.396;8.546;2023-02-11T00:41:57;38.73;;;19.50;;
18188;SDS011;9219;50.396;8.546;2023-02-11T00:44:26;45.50;;;21.67;;
18188;SDS011;9219;50.396;8.546;2023-02-11T00:46:54;44.43;;;22.50;;
18188;SDS011;9219;50.396;8.546;2023-02-11T00:52:15;42.67;;;20.50;;
18188;SDS011;9219;50.396;8.546;2023-02-11T00:54:43;45.10;;;21.97;;
18188;SDS011;9219;50.396;8.546;2023-02-11T00:57:11;43.47;;;20.70;;
18188;SDS011;9219;50.396;8.546;2023-02-11T00:59:39;42.87;;;19.17;;
18188;SDS011;9219;50.396;8.546;2023-02-11T01:02:06;50.73;;;22.90;;
18188;SDS011;9219;50.396;8.546;2023-02-11T01:04:34;43.23;;;20.60;;
18188;SDS011;9219;50.396;8.546;2023-02-11T01:07:02;48.17;;;22.17;;
18188;SDS011;9219;50.396;8.546;2023-02-11T01:17:03;40.93;;;21.73;;
18188;SDS011;9219;50.396;8.546;2023-02-11T01:19:32;46.87;;;22.70;;
18188;SDS011;9219;50.396;8.546;2023-02-11T01:22:00;47.03;;;22.93;;
18188;SDS011;9219;50.396;8.546;2023-02-11T01:24:27;48.70;;;22.30;;
18188;SDS011;9219;50.396;8.546;2023-02-11T01:26:55;43.03;;;22.17;;
18188;SDS011;9219;50.396;8.546;2023-02-11T01:29:22;49.03;;;23.67;;
18188;SDS011;9219;50.396;8.546;2023-02-11T01:31:50;41.33;;;21.63;;
18188;SDS011;9219;50.396;8.546;2023-02-11T01:39:20;44.87;;;21.47;;
18188;SDS011;9219;50.396;8.546;2023-02-11T01:41:47;43.53;;;19.33;;
18188;SDS011;9219;50.396;8.546;2023-02-11T01:44:21;42.43;;;21.37;;
18188;SDS011;9219;50.396;8.546;2023-02-11T01:46:50;45.97;;;22.53;;
18188;SDS011;9219;50.396;8.546;2023-02-11T01:49:18;40.13;;;19.40;;
18188;SDS011;9219;50.396;8.546;2023-02-11T01:51:50;42.93;;;21.43;;
18188;SDS011;9219;50.396;8.546;2023-02-11T01:54:24;48.40;;;21.83;;
18188;SDS011;9219;50.396;8.546;2023-02-11T02:02:29;42.53;;;23.07;;
18188;SDS011;9219;50.396;8.546;2023-02-11T02:05:04;38.93;;;21.10;;
18188;SDS011;9219;50.396;8.546;2023-02-11T02:07:38;46.80;;;21.10;;
18188;SDS011;9219;50.396;8.546;2023-02-11T02:10:13;46.20;;;22.43;;
18188;SDS011;9219;50.396;8.546;2023-02-11T02:12:45;47.53;;;21.20;;
18188;SDS011;9219;50.396;8.546;2023-02-11T02:15:23;50.07;;;22.90;;
18188;SDS011;9219;50.396;8.546;2023-02-11T02:17:56;39.63;;;21.03;;
18188;SDS011;9219;50.396;8.546;2023-02-11T02:25:45;36.13;;;19.30;;
18188;SDS011;9219;50.396;8.546;2023-02-11T02:28:32;44.30;;;22.33;;
18188;SDS011;9219;50.396;8.546;2023-02-11T02:31:19;44.93;;;21.10;;
18188;SDS011;9219;50.396;8.546;2023-02-11T02:34:12;39.37;;;19.13;;
18188;SDS011;9219;50.396;8.546;2023-02-11T02:36:46;47.87;;;22.13;;
18188;SDS011;9219;50.396;8.546;2023-02-11T02:39:23;44.70;;;20.27;;
18188;SDS011;9219;50.396;8.546;2023-02-11T02:41:53;45.03;;;23.50;;
18188;SDS011;9219;50.396;8.546;2023-02-11T02:51:46;47.40;;;23.37;;
18188;SDS011;9219;50.396;8.546;2023-02-11T02:54:51;52.13;;;23.07;;
18188;SDS011;9219;50.396;8.546;2023-02-11T02:57:39;52.13;;;21.13;;
18188;SDS011;9219;50.396;8.546;2023-02-11T03:00:33;46.27;;;21.80;;
18188;SDS011;9219;50.396;8.546;2023-02-11T03:03:15;49.43;;;22.87;;
18188;SDS011;9219;50.396;8.546;2023-02-11T03:05:52;44.40;;;22.03;;
18188;SDS011;9219;50.396;8.546;2023-02-11T03:11:34;45.83;;;21.93;;
18188;SDS011;9219;50.396;8.546;2023-02-11T03:14:04;46.87;;;21.77;;
18188;SDS011;9219;50.396;8.546;2023-02-11T03:16:35;46.83;;;22.90;;
18188;SDS011;9219;50.396;8.546;2023-02-11T03:19:05;46.27;;;23.37;;
18188;SDS011;9219;50.396;8.546;2023-02-11T03:21:39;46.47;;;19.90;;
18188;SDS011;9219;50.396;8.546;2023-02-11T03:24:14;51.03;;;22.37;;
18188;SDS011;9219;50.396;8.546;2023-02-11T03:26:48;43.20;;;21.17;;
18188;SDS011;9219;50.396;8.546;2023-02-11T03:36:47;39.10;;;20.97;;
18188;SDS011;9219;50.396;8.546;2023-02-11T03:39:22;50.07;;;23.13;;
18188;SDS011;9219;50.396;8.546;2023-02-11T03:41:53;45.47;;;19.53;;
18188;SDS011;9219;50.396;8.546;2023-02-11T03:44:24;46.20;;;22.47;;
18188;SDS011;9219;50.396;8.546;2023-02-11T03:46:56;51.70;;;21.97;;
18188;SDS011;9219;50.396;8.546;2023-02-11T03:49:24;44.63;;;21.20;;
18188;SDS011;9219;50.396;8.546;2023-02-11T03:51:59;43.27;;;21.80;;
18188;SDS011;9219;50.396;8.546;2023-02-11T03:58:58;48.63;;;22.17;;
18188;SDS011;9219;50.396;8.546;2023-02-11T04:01:26;43.47;;;20.03;;
18188;SDS011;9219;50.396;8.546;2023-02-11T04:03:54;38.67;;;19.93;;
18188;SDS011;9219;50.396;8.546;2023-02-11T04:06:23;45.23;;;22.47;;
18188;SDS011;9219;50.396;8.546;2023-02-11T04:08:51;47.70;;;21.10;;
18188;SDS011;9219;50.396;8.546;2023-02-11T04:11:21;47.97;;;22.47;;
18188;SDS011;9219;50.396;8.546;2023-02-11T04:13:50;43.87;;;19.67;;
18188;SDS011;9219;50.396;8.546;2023-02-11T04:19:10;47.10;;;23.20;;
18188;SDS011;9219;50.396;8.546;2023-02-11T04:21:38;41.63;;;22.03;;
18188;SDS011;9219;50.396;8.546;2023-02-11T04:24:06;44.47;;;22.30;;
18188;SDS011;9219;50.396;8.546;2023-02-11T04:26:34;50.17;;;23.67;;
18188;SDS011;9219;50.396;8.546;2023-02-11T04:29:02;46.07;;;23.20;;
18188;SDS011;9219;50.396;8.546;2023-02-11T04:31:30;42.33;;;20.93;;
18188;SDS011;9219;50.396;8.546;2023-02-11T04:33:59;43.90;;;20.97;;
18188;SDS011;9219;50.396;8.546;2023-02-11T04:36:28;50.97;;;24.40;;
18188;SDS011;9219;50.396;8.546;2023-02-11T04:43:38;54.00;;;23.83;;
18188;SDS011;9219;50.396;8.546;2023-02-11T04:46:05;50.67;;;21.90;;
18188;SDS011;9219;50.396;8.546;2023-02-11T04:48:34;47.53;;;22.67;;
18188;SDS011;9219;50.396;8.546;2023-02-11T04:51:02;49.87;;;22.57;;
18188;SDS011;9219;50.396;8.546;2023-02-11T04:53:30;48.27;;;22.73;;
18188;SDS011;9219;50.396;8.546;2023-02-11T04:56:19;58.60;;;24.30;;
18188;SDS011;9219;50.396;8.546;2023-02-11T04:58:54;55.93;;;22.60;;
18188;SDS011;9219;50.396;8.546;2023-02-11T05:01:22;44.90;;;23.17;;
18188;SDS011;9219;50.396;8.546;2023-02-11T05:09:05;50.80;;;25.10;;
18188;SDS011;9219;50.396;8.546;2023-02-11T05:11:33;45.60;;;21.77;;
18188;SDS011;9219;50.396;8.546;2023-02-11T05:14:03;44.17;;;20.57;;
18188;SDS011;9219;50.396;8.546;2023-02-11T05:16:32;48.17;;;25.27;;
18188;SDS011;9219;50.396;8.546;2023-02-11T05:19:05;49.53;;;22.23;;
18188;SDS011;9219;50.396;8.546;2023-02-11T05:21:33;47.53;;;20.97;;
18188;SDS011;9219;50.396;8.546;2023-02-11T05:24:03;50.90;;;21.90;;
18188;SDS011;9219;50.396;8.546;2023-02-11T05:26:46;51.57;;;22.47;;
18188;SDS011;9219;50.396;8.546;2023-02-11T05:29:28;51.10;;;24.00;;
18188;SDS011;9219;50.396;8.546;2023-02-11T05:36:57;55.37;;;25.30;;
18188;SDS011;9219;50.396;8.546;2023-02-11T05:39:25;53.17;;;23.37;;
18188;SDS011;9219;50.396;8.546;2023-02-11T05:41:53;57.37;;;23.03;;
18188;SDS011;9219;50.396;8.546;2023-02-11T05:44:20;42.53;;;20.90;;
18188;SDS011;9219;50.396;8.546;2023-02-11T05:46:48;47.43;;;22.87;;
18188;SDS011;9219;50.396;8.546;2023-02-11T05:49:17;47.70;;;22.47;;
18188;SDS011;9219;50.396;8.546;2023-02-11T05:51:45;60.17;;;28.47;;
18188;SDS011;9219;50.396;8.546;2023-02-11T05:54:16;53.40;;;26.10;;
18188;SDS011;9219;50.396;8.546;2023-02-11T06:01:49;56.73;;;25.53;;
18188;SDS011;9219;50.396;8.546;2023-02-11T06:04:17;58.97;;;26.80;;
18188;SDS011;9219;50.396;8.546;2023-02-11T06:06:44;51.73;;;26.13;;
18188;SDS011;9219;50.396;8.546;2023-02-11T06:09:12;56.37;;;24.83;;
18188;SDS011;9219;50.396;8.546;2023-02-11T06:11:39;56.23;;;25.53;;
18188;SDS011;9219;50.396;8.546;2023-02-11T06:14:09;53.60;;;24.77;;
18188;SDS011;9219;50.396;8.546;2023-02-11T06:16:37;56.77;;;26.20;;
18188;SDS011;9219;50.396;8.546;2023-02-11T06:21:59;59.10;;;25.07;;
18188;SDS011;9219;50.396;8.546;2023-02-11T06:24:28;56.83;;;27.03;;
18188;SDS011;9219;50.396;8.546;2023-02-11T06:27:15;51.20;;;25.17;;
18188;SDS011;9219;50.396;8.546;2023-02-11T06:29:44;51.33;;;23.73;;
18188;SDS011;9219;50.396;8.546;2023-02-11T06:32:12;55.37;;;25.97;;
18188;SDS011;9219;50.396;8.546;2023-02-11T06:35:00;67.17;;;25.67;;
18188;SDS011;9219;50.396;8.546;2023-02-11T06:37:31;55.13;;;27.50;;
18188;SDS011;9219;50.396;8.546;2023-02-11T06:45:12;62.33;;;27.20;;
18188;SDS011;9219;50.396;8.546;2023-02-11T06:47:41;64.10;;;28.27;;
18188;SDS011;9219;50.396;8.546;2023-02-11T06:50:10;56.03;;;27.97;;
18188;SDS011;9219;50.396;8.546;2023-02-11T06:52:40;62.70;;;29.33;;
18188;SDS011;9219;50.396;8.546;2023-02-11T06:55:08;63.37;;;27.17;;
18188;SDS011;9219;50.396;8.546;2023-02-11T06:57:38;62.20;;;28.03;;
18188;SDS011;9219;50.396;8.546;2023-02-11T07:00:06;61.77;;;26.13;;
18188;SDS011;9219;50.396;8.546;2023-02-11T07:05:30;60.03;;;28.90;;
18188;SDS011;9219;50.396;8.546;2023-02-11T07:07:59;65.17;;;29.00;;
18188;SDS011;9219;50.396;8.546;2023-02-11T07:10:26;56.83;;;26.23;;
18188;SDS011;9219;50.396;8.546;2023-02-11T07:12:54;68.70;;;29.80;;
18188;SDS011;9219;50.396;8.546;2023-02-11T07:15:24;57.67;;;25.50;;
18188;SDS011;9219;50.396;8.546;2023-02-11T07:17:51;55.30;;;26.83;;
18188;SDS011;9219;50.396;8.546;2023-02-11T07:20:18;62.50;;;28.60;;
18188;SDS011;9219;50.396;8.546;2023-02-11T07:22:47;60.37;;;27.30;;
18188;SDS011;9219;50.396;8.546;2023-02-11T07:28:41;53.87;;;26.50;;
18188;SDS011;9219;50.396;8.546;2023-02-11T07:31:10;58.13;;;29.10;;
18188;SDS011;9219;50.396;8.546;2023-02-11T07:33:40;61.93;;;29.13;;
18188;SDS011;9219;50.396;8.546;2023-02-11T07:36:09;64.07;;;28.67;;
18188;SDS011;9219;50.396;8.546;2023-02-11T07:38:37;56.27;;;27.63;;
18188;SDS011;9219;50.396;8.546;2023-02-11T07:41:06;59.87;;;28.30;;
18188;SDS011;9219;50.396;8.546;2023-02-11T07:43:35;62.73;;;27.90;;
18188;SDS011;9219;50.396;8.546;2023-02-11T07:49:28;68.37;;;30.23;;
18188;SDS011;9219;50.396;8.546;2023-02-11T07:51:56;62.70;;;29.47;;
18188;SDS011;9219;50.396;8.546;2023-02-11T07:54:24;60.63;;;27.00;;
18188;SDS011;9219;50.396;8.546;2023-02-11T07:56:51;55.50;;;28.13;;
18188;SDS011;9219;50.396;8.546;2023-02-11T07:59:19;55.87;;;27.40;;
18188;SDS011;9219;50.396;8.546;2023-02-11T08:01:48;53.67;;;26.03;;
18188;SDS011;9219;50.396;8.546;2023-02-11T08:04:16;56.37;;;27.77;;
18188;SDS011;9219;50.396;8.546;2023-02-11T08:06:45;63.23;;;28.40;;
18188;SDS011;9219;50.396;8.546;2023-02-11T08:14:43;59.03;;;28.73;;
18188;SDS011;9219;50.396;8.546;2023-02-11T08:17:11;62.23;;;26.77;;
18188;SDS011;9219;50.396;8.546;2023-02-11T08:19:39;61.33;;;26.77;;
18188;SDS011;9219;50.396;8.546;2023-02-11T08:22:07;53.70;;;25.33;;
18188;SDS011;9219;50.396;8.546;2023-02-11T08:24:35;51.77;;;23.13;;
18188;SDS011;9219;50.396;8.546;2023-02-11T08:27:02;56.13;;;25.20;;
18188;SDS011;9219;50.396;8.546;2023-02-11T08:29:32;56.57;;;26.00;;
18188;SDS011;9219;50.396;8.546;2023-02-11T08:32:01;59.10;;;24.10;;
18188;SDS011;9219;50.396;8.546;2023-02-11T08:39:34;60.83;;;27.23;;
18188;SDS011;9219;50.396;8.546;2023-02-11T08:42:02;64.10;;;28.87;;
18188;SDS011;9219;50.396;8.546;2023-02-11T08:44:30;54.57;;;23.50;;
18188;SDS011;9219;50.396;8.546;2023-02-11T08:46:58;58.87;;;24.70;;
18188;SDS011;9219;50.396;8.546;2023-02-11T08:49:26;61.93;;;27.23;;
18188;SDS011;9219;50.396;8.546;2023-02-11T08:51:56;58.63;;;23.13;;
18188;SDS011;9219;50.396;8.546;2023-02-11T08:54:29;57.50;;;24.10;;
18188;SDS011;9219;50.396;8.546;2023-02-11T08:59:53;50.70;;;23.03;;
18188;SDS011;9219;50.396;8.546;2023-02-11T09:02:21;61.30;;;27.20;;
18188;SDS011;9219;50.396;8.546;2023-02-11T09:04:52;50.73;;;22.33;;
18188;SDS011;9219;50.396;8.546;2023-02-11T09:07:19;61.10;;;25.03;;
18188;SDS011;9219;50.396;8.546;2023-02-11T09:09:48;57.63;;;26.63;;
18188;SDS011;9219;50.396;8.546;2023-02-11T09:12:15;62.97;;;26.83;;
18188;SDS011;9219;50.396;8.546;2023-02-11T09:14:43;52.63;;;22.83;;
18188;SDS011;9219;50.396;8.546;2023-02-11T09:17:12;58.43;;;24.23;;
18188;SDS011;9219;50.396;8.546;2023-02-11T09:24:49;46.83;;;23.50;;
18188;SDS011;9219;50.396;8.546;2023-02-11T09:27:17;61.53;;;26.97;;
18188;SDS011;9219;50.396;8.546;2023-02-11T09:29:45;55.17;;;23.40;;
18188;SDS011;9219;50.396;8.546;2023-02-11T09:32:17;60.03;;;27.80;;
18188;SDS011;9219;50.396;8.546;2023-02-11T09:34:46;53.60;;;25.93;;
18188;SDS011;9219;50.396;8.546;2023-02-11T09:37:17;66.27;;;26.10;;
18188;SDS011;9219;50.396;8.546;2023-02-11T09:39:45;69.23;;;29.23;;
18188;SDS011;9219;50.396;8.546;2023-02-11T09:47:30;71.17;;;29.73;;
18188;SDS011;9219;50.396;8.546;2023-02-11T09:50:00;70.97;;;30.30;;
18188;SDS011;9219;50.396;8.546;2023-02-11T09:52:39;73.60;;;32.60;;
18188;SDS011;9219;50.396;8.546;2023-02-11T09:55:15;66.40;;;27.97;;
18188;SDS011;9219;50.396;8.546;2023-02-11T09:57:47;79.07;;;30.23;;
18188;SDS011;9219;50.396;8.546;2023-02-11T10:00:17;74.73;;;32.00;;
18188;SDS011;9219;50.396;8.546;2023-02-11T10:02:54;77.43;;;30.83;;
18188;SDS011;9219;50.396;8.546;2023-02-11T10:10:46;82.03;;;33.57;;
18188;SDS011;9219;50.396;8.546;2023-02-11T10:13:26;66.57;;;29.07;;
18188;SDS011;9219;50.396;8.546;2023-02-11T10:16:12;59.70;;;28.53;;
18188;SDS011;9219;50.396;8.546;2023-02-11T10:21:45;55.63;;;26.93;;
18188;SDS011;9219;50.396;8.546;2023-02-11T10:24:19;76.90;;;29.83;;
18188;SDS011;9219;50.396;8.546;2023-02-11T10:26:49;63.10;;;25.77;;
18188;SDS011;9219;50.396;8.546;2023-02-11T10:34:22;57.90;;;23.90;;
18188;SDS011;9219;50.396;8.546;2023-02-11T10:36:51;58.40;;;27.17;;
18188;SDS011;9219;50.396;8.546;2023-02-11T10:39:20;59.87;;;24.87;;
18188;SDS011;9219;50.396;8.546;2023-02-11T10:41:50;59.17;;;27.10;;
18188;SDS011;9219;50.396;8.546;2023-02-11T10:44:23;52.70;;;22.47;;
18188;SDS011;9219;50.396;8.546;2023-02-11T10:46:54;65.50;;;28.07;;
18188;SDS011;9219;50.396;8.546;2023-02-11T10:49:33;67.47;;;27.63;;
18188;SDS011;9219;50.396;8.546;2023-02-11T11:00:22;55.13;;;24.33;;
18188;SDS011;9219;50.396;8.546;2023-02-11T11:03:14;60.80;;;25.60;;
18188;SDS011;9219;50.396;8.546;2023-02-11T11:05:48;63.23;;;24.77;;
18188;SDS011;9219;50.396;8.546;2023-02-11T11:08:40;58.53;;;24.63;;
18188;SDS011;9219;50.396;8.546;2023-02-11T11:11:19;63.73;;;23.90;;
18188;SDS011;9219;50.396;8.546;2023-02-11T11:13:53;60.07;;;25.00;;
18188;SDS011;9219;50.396;8.546;2023-02-11T11:16:32;56.37;;;21.73;;
18188;SDS011;9219;50.396;8.546;2023-02-11T11:19:33;71.23;;;25.47;;
18188;SDS011;9219;50.396;8.546;2023-02-11T11:22:30;60.07;;;23.77;;
18188;SDS011;9219;50.396;8.546;2023-02-11T11:29:56;57.20;;;24.10;;
18188;SDS011;9219;50.396;8.546;2023-02-11T11:32:29;66.50;;;24.60;;
18188;SDS011;9219;50.396;8.546;2023-02-11T11:34:59;60.23;;;24.30;;
18188;SDS011;9219;50.396;8.546;2023-02-11T11:37:34;79.82;;;33.05;;
18188;SDS011;9219;50.396;8.546;2023-02-11T11:40:06;75.33;;;29.70;;
18188;SDS011;9219;50.396;8.546;2023-02-11T11:42:38;63.17;;;27.37;;
18188;SDS011;9219;50.396;8.546;2023-02-11T11:45:21;59.63;;;23.40;;
18188;SDS011;9219;50.396;8.546;2023-02-11T11:47:53;59.90;;;24.53;;
18188;SDS011;9219;50.396;8.546;2023-02-11T11:56:00;60.80;;;25.57;;
18188;SDS011;9219;50.396;8.546;2023-02-11T11:58:33;51.83;;;20.77;;
18188;SDS011;9219;50.396;8.546;2023-02-11T12:01:05;56.10;;;22.77;;
18188;SDS011;9219;50.396;8.546;2023-02-11T12:06:43;54.80;;;21.50;;
18188;SDS011;9219;50.396;8.546;2023-02-11T12:09:24;53.90;;;21.23;;
18188;SDS011;9219;50.396;8.546;2023-02-11T12:22:59;62.33;;;20.97;;
18188;SDS011;9219;50.396;8.546;2023-02-11T12:25:40;86.50;;;25.33;;
18188;SDS011;9219;50.396;8.546;2023-02-11T12:28:19;80.50;;;25.83;;
18188;SDS011;9219;50.396;8.546;2023-02-11T12:30:59;47.70;;;17.53;;
18188;SDS011;9219;50.396;8.546;2023-02-11T12:36:59;92.27;;;25.90;;
18188;SDS011;9219;50.396;8.546;2023-02-11T12:39:50;71.00;;;23.77;;
18188;SDS011;9219;50.396;8.546;2023-02-11T12:42:31;58.17;;;21.50;;
18188;SDS011;9219;50.396;8.546;2023-02-11T12:45:35;80.30;;;26.00;;
18188;SDS011;9219;50.396;8.546;2023-02-11T12:48:21;62.43;;;23.37;;
18188;SDS011;9219;50.396;8.546;2023-02-11T12:51:03;61.37;;;21.80;;
18188;SDS011;9219;50.396;8.546;2023-02-11T12:53:51;60.90;;;22.30;;
18188;SDS011;9219;50.396;8.546;2023-02-11T12:56:36;63.23;;;22.27;;
18188;SDS011;9219;50.396;8.546;2023-02-11T13:03:52;64.00;;;22.37;;
18188;SDS011;9219;50.396;8.546;2023-02-11T13:06:24;77.73;;;24.23;;
18188;SDS011;9219;50.396;8.546;2023-02-11T13:08:58;73.63;;;25.73;;
18188;SDS011;9219;50.396;8.546;2023-02-11T13:11:31;62.73;;;21.37;;
18188;SDS011;9219;50.396;8.546;2023-02-11T13:14:05;69.20;;;23.17;;
18188;SDS011;9219;50.396;8.546;2023-02-11T13:16:40;81.77;;;22.37;;
18188;SDS011;9219;50.396;8.546;2023-02-11T13:19:16;119.50;;;26.77;;
18188;SDS011;9219;50.396;8.546;2023-02-11T13:22:07;110.43;;;26.70;;
18188;SDS011;9219;50.396;8.546;2023-02-11T13:33:05;85.73;;;24.67;;
18188;SDS011;9219;50.396;8.546;2023-02-11T13:35:45;73.40;;;23.87;;
18188;SDS011;9219;50.396;8.546;2023-02-11T13:38:17;257.73;;;42.53;;
18188;SDS011;9219;50.396;8.546;2023-02-11T13:40:58;184.17;;;32.97;;
18188;SDS011;9219;50.396;8.546;2023-02-11T13:43:31;125.97;;;28.83;;
18188;SDS011;9219;50.396;8.546;2023-02-11T13:46:02;103.43;;;26.67;;
18188;SDS011;9219;50.396;8.546;2023-02-11T13:48:33;115.33;;;26.87;;
18188;SDS011;9219;50.396;8.546;2023-02-11T13:51:57;88.40;;;25.60;;
18188;SDS011;9219;50.396;8.546;2023-02-11T13:54:30;65.00;;;21.53;;
18188;SDS011;9219;50.396;8.546;2023-02-11T13:59:59;73.23;;;21.67;;
18188;SDS011;9219;50.396;8.546;2023-02-11T14:02:30;91.17;;;26.43;;
18188;SDS011;9219;50.396;8.546;2023-02-11T14:05:23;98.20;;;24.40;;
18188;SDS011;9219;50.396;8.546;2023-02-11T14:08:17;156.07;;;32.10;;
18188;SDS011;9219;50.396;8.546;2023-02-11T14:19:04;244.10;;;38.80;;
18188;SDS011;9219;50.396;8.546;2023-02-11T14:21:36;104.20;;;28.17;;
18188;SDS011;9219;50.396;8.546;2023-02-11T14:27:24;219.47;;;38.43;;
18188;SDS011;9219;50.396;8.546;2023-02-11T14:30:27;189.60;;;33.97;;
18188;SDS011;9219;50.396;8.546;2023-02-11T14:44:15;93.57;;;29.17;;
18188;SDS011;9219;50.396;8.546;2023-02-11T14:46:47;148.50;;;31.17;;
18188;SDS011;9219;50.396;8.546;2023-02-11T14:49:21;337.17;;;52.47;;
18188;SDS011;9219;50.396;8.546;2023-02-11T14:51:53;92.73;;;29.23;;
18188;SDS011;9219;50.396;8.546;2023-02-11T14:54:28;144.10;;;31.60;;
18188;SDS011;9219;50.396;8.546;2023-02-11T14:57:08;272.00;;;40.87;;
18188;SDS011;9219;50.396;8.546;2023-02-11T14:59:48;74.47;;;25.63;;
18188;SDS011;9219;50.396;8.546;2023-02-11T15:05:16;129.57;;;34.87;;
18188;SDS011;9219;50.396;8.546;2023-02-11T15:07:51;108.13;;;28.90;;
18188;SDS011;9219;50.396;8.546;2023-02-11T15:10:28;162.87;;;34.30;;
18188;SDS011;9219;50.396;8.546;2023-02-11T15:12:58;114.40;;;29.93;;
18188;SDS011;9219;50.396;8.546;2023-02-11T15:15:28;213.70;;;36.07;;
18188;SDS011;9219;50.396;8.546;2023-02-11T15:18:02;112.30;;;30.43;;
18188;SDS011;9219;50.396;8.546;2023-02-11T15:20:40;106.10;;;28.10;;
18188;SDS011;9219;50.396;8.546;2023-02-11T15:27:57;164.67;;;35.73;;
18188;SDS011;9219;50.396;8.546;2023-02-11T15:30:28;149.13;;;31.47;;
18188;SDS011;9219;50.396;8.546;2023-02-11T15:33:18;377.90;;;51.83;;
18188;SDS011;9219;50.396;8.546;2023-02-11T15:35:50;109.10;;;33.83;;
18188;SDS011;9219;50.396;8.546;2023-02-11T15:38:19;99.10;;;31.43;;
18188;SDS011;9219;50.396;8.546;2023-02-11T15:40:51;200.40;;;40.90;;
18188;SDS011;9219;50.396;8.546;2023-02-11T15:43:23;354.07;;;52.03;;
18188;SDS011;9219;50.396;8.546;2023-02-11T16:04:43;420.90;;;52.70;;
18188;SDS011;9219;50.396;8.546;2023-02-11T16:10:14;384.30;;;49.33;;
18188;SDS011;9219;50.396;8.546;2023-02-11T16:12:49;129.43;;;28.83;;
18188;SDS011;9219;50.396;8.546;2023-02-11T16:18:17;506.93;;;68.07;;
18188;SDS011;9219;50.396;8.546;2023-02-11T16:26:05;76.87;;;25.73;;
18188;SDS011;9219;50.396;8.546;2023-02-11T16:28:37;475.67;;;60.63;;
18188;SDS011;9219;50.396;8.546;2023-02-11T16:31:11;669.97;;;86.60;;
18188;SDS011;9219;50.396;8.546;2023-02-11T16:34:06;583.23;;;81.43;;
18188;SDS011;9219;50.396;8.546;2023-02-11T16:36:43;456.50;;;58.57;;
18188;SDS011;9219;50.396;8.546;2023-02-11T17:10:04;464.83;;;66.00;;
18188;SDS011;9219;50.396;8.546;2023-02-11T17:59:01;984.37;;;117.97;;
18188;SDS011;9219;50.396;8.546;2023-02-11T18:29:43;890.73;;;102.67;;
18188;SDS011;9219;50.396;8.546;2023-02-11T18:32:39;273.00;;;43.23;;
18188;SDS011;9219;50.396;8.546;2023-02-11T18:35:16;657.97;;;78.83;;
18188;SDS011;9219;50.396;8.546;2023-02-11T18:38:16;817.17;;;97.47;;
18188;SDS011;9219;50.396;8.546;2023-02-11T18:40:59;789.37;;;98.47;;
18188;SDS011;9219;50.396;8.546;2023-02-11T18:43:32;853.70;;;99.33;;
18188;SDS011;9219;50.396;8.546;2023-02-11T18:52:53;1048.27;;;123.23;;
18188;SDS011;9219;50.396;8.546;2023-02-11T18:55:44;961.93;;;112.57;;
18188;SDS011;9219;50.396;8.546;2023-02-11T18:59:00;982.30;;;118.90;;
18188;SDS011;9219;50.396;8.546;2023-02-11T19:02:14;573.83;;;69.67;;
18188;SDS011;9219;50.396;8.546;2023-02-11T19:43:27;1002.23;;;123.47;;
18188;SDS011;9219;50.396;8.546;2023-02-11T19:49:44;311.90;;;47.70;;
18188;SDS011;9219;50.396;8.546;2023-02-11T19:56:26;702.53;;;81.47;;
18188;SDS011;9219;50.396;8.546;2023-02-11T19:59:10;697.03;;;87.73;;
18188;SDS011;9219;50.396;8.546;2023-02-11T20:01:57;923.70;;;120.23;;
18188;SDS011;9219;50.396;8.546;2023-02-11T20:20:21;990.97;;;102.07;;
18188;SDS011;9219;50.396;8.546;2023-02-11T22:32:54;866.50;;;108.17;;
18188;SDS011;9219;50.396;8.546;2023-02-11T22:35:29;766.63;;;98.33;;
18188;SDS011;9219;50.396;8.546;2023-02-11T22:38:01;919.83;;;115.27;;
18188;SDS011;9219;50.396;8.546;2023-02-11T22:41:27;784.20;;;91.33;;
18188;SDS011;9219;50.396;8.546;2023-02-11T23:32:36;746.93;;;88.67;;
18188;SDS011;9219;50.396;8.546;2023-02-11T23:35:21;894.40;;;112.23;;
18188;SDS011;9219;50.396;8.546;2023-02-11T23:37:52;980.60;;;123.10;;
18188;SDS011;9219;50.396;8.546;2023-02-11T23:40:31;814.33;;;107.00;;
18188;SDS011;9219;50.396;8.546;2023-02-11T23:43:39;891.33;;;111.47;;
18188;SDS011;9219;50.396;8.546;2023-02-11T23:46:51;1133.53;;;137.23;;
18188;SDS011;9219;50.396;8.546;2023-02-11T23:49:34;896.00;;;117.87;;
18188;SDS011;9219;50.396;8.546;2023-02-11T23:52:26;815.33;;;104.03;;
